sensor_id;sensor_type;location;lat;lon;timestamp;P1;durP1;ratioP1;P2;durP2;ratioP2
65477;SDS011;53678;39.642;22.430;2023-12-14T00:01:26;87.70;;;47.88;;
65477;SDS011;53678;39.642;22.430;2023-12-14T00:03:52;72.85;;;43.30;;
65477;SDS011;53678;39.642;22.430;2023-12-14T00:06:17;85.95;;;46.25;;
65477;SDS011;53678;39.642;22.430;2023-12-14T00:08:43;89.25;;;44.83;;
65477;SDS011;53678;39.642;22.430;2023-12-14T00:11:10;88.68;;;45.38;;
65477;SDS011;53678;39.642;22.430;2023-12-14T00:13:36;77.88;;;43.55;;
65477;SDS011;53678;39.642;22.430;2023-12-14T00:16:03;88.22;;;45.63;;
65477;SDS011;53678;39.642;22.430;2023-12-14T00:18:29;80.93;;;44.80;;
65477;SDS011;53678;39.642;22.430;2023-12-14T00:20:55;79.80;;;43.42;;
65477;SDS011;53678;39.642;22.430;2023-12-14T00:23:21;76.13;;;42.42;;
65477;SDS011;53678;39.642;22.430;2023-12-14T00:25:49;88.75;;;47.60;;
65477;SDS011;53678;39.642;22.430;2023-12-14T00:28:14;77.35;;;46.08;;
65477;SDS011;53678;39.642;22.430;2023-12-14T00:30:40;94.53;;;49.10;;
65477;SDS011;53678;39.642;22.430;2023-12-14T00:33:07;89.97;;;46.55;;
65477;SDS011;53678;39.642;22.430;2023-12-14T00:35:32;83.85;;;46.67;;
65477;SDS011;53678;39.642;22.430;2023-12-14T00:37:58;86.15;;;45.97;;
65477;SDS011;53678;39.642;22.430;2023-12-14T00:40:24;102.10;;;52.40;;
65477;SDS011;53678;39.642;22.430;2023-12-14T00:42:50;103.45;;;52.42;;
65477;SDS011;53678;39.642;22.430;2023-12-14T00:45:16;98.07;;;51.80;;
65477;SDS011;53678;39.642;22.430;2023-12-14T00:47:42;92.97;;;49.08;;
65477;SDS011;53678;39.642;22.430;2023-12-14T00:50:08;97.80;;;50.85;;
65477;SDS011;53678;39.642;22.430;2023-12-14T00:52:34;86.90;;;46.90;;
65477;SDS011;53678;39.642;22.430;2023-12-14T00:54:59;90.72;;;46.85;;
65477;SDS011;53678;39.642;22.430;2023-12-14T00:57:25;95.88;;;51.08;;
65477;SDS011;53678;39.642;22.430;2023-12-14T00:59:51;97.53;;;54.30;;
65477;SDS011;53678;39.642;22.430;2023-12-14T01:02:17;96.35;;;52.42;;
65477;SDS011;53678;39.642;22.430;2023-12-14T01:04:42;97.68;;;52.75;;
65477;SDS011;53678;39.642;22.430;2023-12-14T01:07:08;101.90;;;53.10;;
65477;SDS011;53678;39.642;22.430;2023-12-14T01:09:34;100.50;;;48.22;;
65477;SDS011;53678;39.642;22.430;2023-12-14T01:11:59;85.43;;;48.17;;
65477;SDS011;53678;39.642;22.430;2023-12-14T01:14:25;91.68;;;51.65;;
65477;SDS011;53678;39.642;22.430;2023-12-14T01:16:51;94.60;;;51.15;;
65477;SDS011;53678;39.642;22.430;2023-12-14T01:19:17;93.97;;;51.35;;
65477;SDS011;53678;39.642;22.430;2023-12-14T01:21:42;95.93;;;53.30;;
65477;SDS011;53678;39.642;22.430;2023-12-14T01:24:08;101.35;;;56.45;;
65477;SDS011;53678;39.642;22.430;2023-12-14T01:26:34;108.82;;;58.40;;
65477;SDS011;53678;39.642;22.430;2023-12-14T01:28:59;111.28;;;61.42;;
65477;SDS011;53678;39.642;22.430;2023-12-14T01:31:25;112.90;;;58.75;;
65477;SDS011;53678;39.642;22.430;2023-12-14T01:33:51;103.05;;;56.45;;
65477;SDS011;53678;39.642;22.430;2023-12-14T01:36:25;100.63;;;53.70;;
65477;SDS011;53678;39.642;22.430;2023-12-14T01:38:51;109.40;;;56.38;;
65477;SDS011;53678;39.642;22.430;2023-12-14T01:41:18;99.07;;;50.95;;
65477;SDS011;53678;39.642;22.430;2023-12-14T01:43:44;102.10;;;51.35;;
65477;SDS011;53678;39.642;22.430;2023-12-14T01:46:10;94.05;;;50.22;;
65477;SDS011;53678;39.642;22.430;2023-12-14T01:48:37;94.57;;;46.63;;
65477;SDS011;53678;39.642;22.430;2023-12-14T01:51:03;86.65;;;48.33;;
65477;SDS011;53678;39.642;22.430;2023-12-14T01:53:29;88.00;;;46.22;;
65477;SDS011;53678;39.642;22.430;2023-12-14T01:55:55;90.85;;;47.97;;
65477;SDS011;53678;39.642;22.430;2023-12-14T01:58:20;83.97;;;44.80;;
65477;SDS011;53678;39.642;22.430;2023-12-14T02:00:56;74.63;;;41.90;;
65477;SDS011;53678;39.642;22.430;2023-12-14T02:03:33;73.82;;;39.63;;
65477;SDS011;53678;39.642;22.430;2023-12-14T02:05:58;71.80;;;37.78;;
65477;SDS011;53678;39.642;22.430;2023-12-14T02:08:27;60.05;;;33.63;;
65477;SDS011;53678;39.642;22.430;2023-12-14T02:10:54;59.00;;;33.97;;
65477;SDS011;53678;39.642;22.430;2023-12-14T02:13:20;67.75;;;33.65;;
65477;SDS011;53678;39.642;22.430;2023-12-14T02:15:45;53.05;;;33.30;;
65477;SDS011;53678;39.642;22.430;2023-12-14T02:18:12;58.70;;;34.05;;
65477;SDS011;53678;39.642;22.430;2023-12-14T02:20:38;70.57;;;38.90;;
65477;SDS011;53678;39.642;22.430;2023-12-14T02:23:03;73.18;;;36.28;;
65477;SDS011;53678;39.642;22.430;2023-12-14T02:25:29;64.78;;;35.72;;
65477;SDS011;53678;39.642;22.430;2023-12-14T02:27:55;63.70;;;36.38;;
65477;SDS011;53678;39.642;22.430;2023-12-14T02:30:21;63.47;;;34.67;;
65477;SDS011;53678;39.642;22.430;2023-12-14T02:32:46;60.25;;;32.92;;
65477;SDS011;53678;39.642;22.430;2023-12-14T02:35:12;57.08;;;31.77;;
65477;SDS011;53678;39.642;22.430;2023-12-14T02:37:38;62.50;;;36.47;;
65477;SDS011;53678;39.642;22.430;2023-12-14T02:40:07;74.30;;;39.05;;
65477;SDS011;53678;39.642;22.430;2023-12-14T02:42:33;75.40;;;41.65;;
65477;SDS011;53678;39.642;22.430;2023-12-14T02:44:59;76.10;;;41.60;;
65477;SDS011;53678;39.642;22.430;2023-12-14T02:47:27;66.90;;;39.60;;
65477;SDS011;53678;39.642;22.430;2023-12-14T02:49:54;68.43;;;38.75;;
65477;SDS011;53678;39.642;22.430;2023-12-14T02:52:20;77.28;;;42.25;;
65477;SDS011;53678;39.642;22.430;2023-12-14T02:54:46;90.50;;;44.40;;
65477;SDS011;53678;39.642;22.430;2023-12-14T02:57:11;79.03;;;42.90;;
65477;SDS011;53678;39.642;22.430;2023-12-14T02:59:37;80.65;;;43.78;;
65477;SDS011;53678;39.642;22.430;2023-12-14T03:02:03;71.90;;;41.25;;
65477;SDS011;53678;39.642;22.430;2023-12-14T03:04:28;70.03;;;40.17;;
65477;SDS011;53678;39.642;22.430;2023-12-14T03:06:54;76.70;;;40.65;;
65477;SDS011;53678;39.642;22.430;2023-12-14T03:09:21;69.35;;;37.80;;
65477;SDS011;53678;39.642;22.430;2023-12-14T03:11:47;70.50;;;39.40;;
65477;SDS011;53678;39.642;22.430;2023-12-14T03:14:13;78.28;;;39.17;;
65477;SDS011;53678;39.642;22.430;2023-12-14T03:16:39;74.05;;;39.47;;
65477;SDS011;53678;39.642;22.430;2023-12-14T03:19:05;64.30;;;37.03;;
65477;SDS011;53678;39.642;22.430;2023-12-14T03:21:31;66.85;;;36.70;;
65477;SDS011;53678;39.642;22.430;2023-12-14T03:23:56;65.82;;;36.38;;
65477;SDS011;53678;39.642;22.430;2023-12-14T03:26:22;90.40;;;44.25;;
65477;SDS011;53678;39.642;22.430;2023-12-14T03:28:48;93.50;;;48.83;;
65477;SDS011;53678;39.642;22.430;2023-12-14T03:31:14;85.35;;;45.90;;
65477;SDS011;53678;39.642;22.430;2023-12-14T03:33:39;80.57;;;45.60;;
65477;SDS011;53678;39.642;22.430;2023-12-14T03:36:05;109.28;;;53.17;;
65477;SDS011;53678;39.642;22.430;2023-12-14T03:38:32;92.22;;;47.45;;
65477;SDS011;53678;39.642;22.430;2023-12-14T03:40:58;99.47;;;47.92;;
65477;SDS011;53678;39.642;22.430;2023-12-14T03:43:24;116.40;;;52.13;;
65477;SDS011;53678;39.642;22.430;2023-12-14T03:45:50;89.30;;;48.05;;
65477;SDS011;53678;39.642;22.430;2023-12-14T03:48:16;86.72;;;44.90;;
65477;SDS011;53678;39.642;22.430;2023-12-14T03:50:41;92.00;;;47.80;;
65477;SDS011;53678;39.642;22.430;2023-12-14T03:53:07;90.45;;;46.85;;
65477;SDS011;53678;39.642;22.430;2023-12-14T03:55:33;90.95;;;45.00;;
65477;SDS011;53678;39.642;22.430;2023-12-14T03:57:59;88.47;;;45.00;;
65477;SDS011;53678;39.642;22.430;2023-12-14T04:00:25;100.70;;;48.33;;
65477;SDS011;53678;39.642;22.430;2023-12-14T04:02:52;92.88;;;46.83;;
65477;SDS011;53678;39.642;22.430;2023-12-14T04:05:17;75.78;;;43.70;;
65477;SDS011;53678;39.642;22.430;2023-12-14T04:07:43;75.93;;;41.50;;
65477;SDS011;53678;39.642;22.430;2023-12-14T04:10:10;69.28;;;38.97;;
65477;SDS011;53678;39.642;22.430;2023-12-14T04:12:37;67.10;;;37.72;;
65477;SDS011;53678;39.642;22.430;2023-12-14T04:15:04;74.43;;;40.80;;
65477;SDS011;53678;39.642;22.430;2023-12-14T04:17:31;69.25;;;39.45;;
65477;SDS011;53678;39.642;22.430;2023-12-14T04:19:57;62.05;;;36.75;;
65477;SDS011;53678;39.642;22.430;2023-12-14T04:22:23;64.72;;;36.38;;
65477;SDS011;53678;39.642;22.430;2023-12-14T04:24:49;67.28;;;35.42;;
65477;SDS011;53678;39.642;22.430;2023-12-14T04:27:16;72.25;;;35.90;;
65477;SDS011;53678;39.642;22.430;2023-12-14T04:29:42;69.38;;;34.10;;
65477;SDS011;53678;39.642;22.430;2023-12-14T04:32:07;74.10;;;34.80;;
65477;SDS011;53678;39.642;22.430;2023-12-14T04:34:33;59.83;;;32.95;;
65477;SDS011;53678;39.642;22.430;2023-12-14T04:36:59;60.60;;;34.88;;
65477;SDS011;53678;39.642;22.430;2023-12-14T04:39:25;61.80;;;32.50;;
65477;SDS011;53678;39.642;22.430;2023-12-14T04:41:51;61.15;;;32.95;;
65477;SDS011;53678;39.642;22.430;2023-12-14T04:44:20;82.22;;;36.42;;
65477;SDS011;53678;39.642;22.430;2023-12-14T04:46:47;64.13;;;35.42;;
65477;SDS011;53678;39.642;22.430;2023-12-14T04:49:13;61.78;;;35.50;;
65477;SDS011;53678;39.642;22.430;2023-12-14T04:51:39;69.57;;;35.20;;
65477;SDS011;53678;39.642;22.430;2023-12-14T04:54:05;64.32;;;35.53;;
65477;SDS011;53678;39.642;22.430;2023-12-14T04:56:31;53.25;;;32.60;;
65477;SDS011;53678;39.642;22.430;2023-12-14T04:58:57;52.20;;;31.55;;
65477;SDS011;53678;39.642;22.430;2023-12-14T05:01:23;94.95;;;36.78;;
65477;SDS011;53678;39.642;22.430;2023-12-14T05:03:52;73.93;;;33.53;;
65477;SDS011;53678;39.642;22.430;2023-12-14T05:06:18;92.25;;;39.90;;
65477;SDS011;53678;39.642;22.430;2023-12-14T05:08:44;89.78;;;39.78;;
65477;SDS011;53678;39.642;22.430;2023-12-14T05:11:12;89.03;;;38.50;;
65477;SDS011;53678;39.642;22.430;2023-12-14T05:13:38;88.72;;;38.53;;
65477;SDS011;53678;39.642;22.430;2023-12-14T05:16:05;80.95;;;37.83;;
65477;SDS011;53678;39.642;22.430;2023-12-14T05:18:31;83.53;;;39.20;;
65477;SDS011;53678;39.642;22.430;2023-12-14T05:20:59;90.32;;;40.15;;
65477;SDS011;53678;39.642;22.430;2023-12-14T05:23:24;99.03;;;41.90;;
65477;SDS011;53678;39.642;22.430;2023-12-14T05:25:50;99.97;;;39.03;;
65477;SDS011;53678;39.642;22.430;2023-12-14T05:28:16;79.45;;;38.13;;
65477;SDS011;53678;39.642;22.430;2023-12-14T05:30:42;67.05;;;36.05;;
65477;SDS011;53678;39.642;22.430;2023-12-14T05:33:07;66.50;;;37.08;;
65477;SDS011;53678;39.642;22.430;2023-12-14T05:35:33;66.28;;;38.55;;
65477;SDS011;53678;39.642;22.430;2023-12-14T05:37:59;97.03;;;43.92;;
65477;SDS011;53678;39.642;22.430;2023-12-14T05:40:25;77.97;;;39.28;;
65477;SDS011;53678;39.642;22.430;2023-12-14T05:42:51;80.03;;;37.83;;
65477;SDS011;53678;39.642;22.430;2023-12-14T05:45:16;60.78;;;32.65;;
65477;SDS011;53678;39.642;22.430;2023-12-14T05:47:44;59.72;;;35.78;;
65477;SDS011;53678;39.642;22.430;2023-12-14T05:50:10;79.95;;;38.83;;
65477;SDS011;53678;39.642;22.430;2023-12-14T05:52:37;96.80;;;41.70;;
65477;SDS011;53678;39.642;22.430;2023-12-14T05:55:04;103.18;;;42.35;;
65477;SDS011;53678;39.642;22.430;2023-12-14T05:57:30;103.65;;;40.22;;
65477;SDS011;53678;39.642;22.430;2023-12-14T05:59:55;98.95;;;42.15;;
65477;SDS011;53678;39.642;22.430;2023-12-14T06:02:22;96.13;;;42.70;;
65477;SDS011;53678;39.642;22.430;2023-12-14T06:04:47;98.05;;;40.75;;
65477;SDS011;53678;39.642;22.430;2023-12-14T06:07:14;108.75;;;41.30;;
65477;SDS011;53678;39.642;22.430;2023-12-14T06:09:40;103.57;;;43.85;;
65477;SDS011;53678;39.642;22.430;2023-12-14T06:12:06;89.97;;;42.20;;
65477;SDS011;53678;39.642;22.430;2023-12-14T06:14:32;84.55;;;41.92;;
65477;SDS011;53678;39.642;22.430;2023-12-14T06:16:58;88.32;;;41.05;;
65477;SDS011;53678;39.642;22.430;2023-12-14T06:19:23;81.35;;;37.22;;
65477;SDS011;53678;39.642;22.430;2023-12-14T06:21:49;64.70;;;36.20;;
65477;SDS011;53678;39.642;22.430;2023-12-14T06:24:15;69.03;;;36.40;;
65477;SDS011;53678;39.642;22.430;2023-12-14T06:26:41;77.65;;;38.20;;
65477;SDS011;53678;39.642;22.430;2023-12-14T06:29:11;83.50;;;37.97;;
65477;SDS011;53678;39.642;22.430;2023-12-14T06:31:37;72.00;;;34.88;;
65477;SDS011;53678;39.642;22.430;2023-12-14T06:34:03;62.55;;;33.05;;
65477;SDS011;53678;39.642;22.430;2023-12-14T06:36:30;80.10;;;36.25;;
65477;SDS011;53678;39.642;22.430;2023-12-14T06:38:57;67.28;;;33.97;;
65477;SDS011;53678;39.642;22.430;2023-12-14T06:41:23;62.05;;;34.90;;
65477;SDS011;53678;39.642;22.430;2023-12-14T06:43:50;72.97;;;35.47;;
65477;SDS011;53678;39.642;22.430;2023-12-14T06:46:16;78.10;;;38.75;;
65477;SDS011;53678;39.642;22.430;2023-12-14T06:48:42;75.30;;;36.08;;
65477;SDS011;53678;39.642;22.430;2023-12-14T06:51:08;75.40;;;35.28;;
65477;SDS011;53678;39.642;22.430;2023-12-14T06:53:39;79.72;;;36.20;;
65477;SDS011;53678;39.642;22.430;2023-12-14T06:56:06;90.57;;;36.03;;
65477;SDS011;53678;39.642;22.430;2023-12-14T06:58:35;67.80;;;35.88;;
65477;SDS011;53678;39.642;22.430;2023-12-14T07:01:00;73.40;;;34.05;;
65477;SDS011;53678;39.642;22.430;2023-12-14T07:03:26;66.93;;;32.63;;
65477;SDS011;53678;39.642;22.430;2023-12-14T07:05:52;66.75;;;34.58;;
65477;SDS011;53678;39.642;22.430;2023-12-14T07:08:17;75.72;;;36.65;;
65477;SDS011;53678;39.642;22.430;2023-12-14T07:10:43;70.40;;;36.95;;
65477;SDS011;53678;39.642;22.430;2023-12-14T07:13:10;75.95;;;38.50;;
65477;SDS011;53678;39.642;22.430;2023-12-14T07:15:36;70.85;;;38.80;;
65477;SDS011;53678;39.642;22.430;2023-12-14T07:18:02;81.43;;;40.60;;
65477;SDS011;53678;39.642;22.430;2023-12-14T07:20:28;78.45;;;41.22;;
65477;SDS011;53678;39.642;22.430;2023-12-14T07:22:53;83.90;;;43.67;;
65477;SDS011;53678;39.642;22.430;2023-12-14T07:25:19;77.00;;;43.40;;
65477;SDS011;53678;39.642;22.430;2023-12-14T07:27:45;84.40;;;44.40;;
65477;SDS011;53678;39.642;22.430;2023-12-14T07:30:12;90.30;;;42.28;;
65477;SDS011;53678;39.642;22.430;2023-12-14T07:32:38;103.75;;;46.25;;
65477;SDS011;53678;39.642;22.430;2023-12-14T07:35:05;94.22;;;45.22;;
65477;SDS011;53678;39.642;22.430;2023-12-14T07:37:32;82.55;;;42.67;;
65477;SDS011;53678;39.642;22.430;2023-12-14T07:39:58;88.53;;;44.67;;
65477;SDS011;53678;39.642;22.430;2023-12-14T07:42:23;98.45;;;51.45;;
65477;SDS011;53678;39.642;22.430;2023-12-14T07:44:49;75.55;;;40.97;;
65477;SDS011;53678;39.642;22.430;2023-12-14T07:47:15;100.25;;;49.47;;
65477;SDS011;53678;39.642;22.430;2023-12-14T07:49:41;96.35;;;50.35;;
65477;SDS011;53678;39.642;22.430;2023-12-14T07:52:06;87.30;;;48.40;;
65477;SDS011;53678;39.642;22.430;2023-12-14T07:54:32;75.65;;;42.50;;
65477;SDS011;53678;39.642;22.430;2023-12-14T07:56:58;78.55;;;44.53;;
65477;SDS011;53678;39.642;22.430;2023-12-14T07:59:24;81.88;;;44.47;;
65477;SDS011;53678;39.642;22.430;2023-12-14T08:01:50;73.05;;;41.75;;
65477;SDS011;53678;39.642;22.430;2023-12-14T08:04:15;82.78;;;43.53;;
65477;SDS011;53678;39.642;22.430;2023-12-14T08:06:41;79.95;;;44.13;;
65477;SDS011;53678;39.642;22.430;2023-12-14T08:09:07;96.38;;;45.55;;
65477;SDS011;53678;39.642;22.430;2023-12-14T08:11:33;93.72;;;48.38;;
65477;SDS011;53678;39.642;22.430;2023-12-14T08:13:59;77.07;;;45.83;;
65477;SDS011;53678;39.642;22.430;2023-12-14T08:16:25;79.88;;;45.80;;
65477;SDS011;53678;39.642;22.430;2023-12-14T08:18:52;82.57;;;45.95;;
65477;SDS011;53678;39.642;22.430;2023-12-14T08:21:17;71.13;;;42.47;;
65477;SDS011;53678;39.642;22.430;2023-12-14T08:23:45;78.97;;;45.28;;
65477;SDS011;53678;39.642;22.430;2023-12-14T08:26:10;78.53;;;45.15;;
65477;SDS011;53678;39.642;22.430;2023-12-14T08:28:39;78.50;;;45.35;;
65477;SDS011;53678;39.642;22.430;2023-12-14T08:31:05;80.90;;;45.08;;
65477;SDS011;53678;39.642;22.430;2023-12-14T08:33:31;98.00;;;46.13;;
65477;SDS011;53678;39.642;22.430;2023-12-14T08:35:57;91.25;;;46.78;;
65477;SDS011;53678;39.642;22.430;2023-12-14T08:38:23;82.78;;;47.80;;
65477;SDS011;53678;39.642;22.430;2023-12-14T08:40:50;90.03;;;50.35;;
65477;SDS011;53678;39.642;22.430;2023-12-14T08:43:16;84.18;;;47.33;;
65477;SDS011;53678;39.642;22.430;2023-12-14T08:45:42;85.25;;;49.65;;
65477;SDS011;53678;39.642;22.430;2023-12-14T08:48:08;98.93;;;51.42;;
65477;SDS011;53678;39.642;22.430;2023-12-14T08:50:34;93.38;;;51.22;;
65477;SDS011;53678;39.642;22.430;2023-12-14T08:53:00;94.70;;;50.15;;
65477;SDS011;53678;39.642;22.430;2023-12-14T08:55:26;90.22;;;48.15;;
65477;SDS011;53678;39.642;22.430;2023-12-14T08:57:53;74.53;;;45.25;;
65477;SDS011;53678;39.642;22.430;2023-12-14T09:00:19;85.68;;;45.10;;
65477;SDS011;53678;39.642;22.430;2023-12-14T09:02:45;70.60;;;41.42;;
65477;SDS011;53678;39.642;22.430;2023-12-14T09:05:11;71.55;;;41.30;;
65477;SDS011;53678;39.642;22.430;2023-12-14T09:07:38;71.38;;;36.92;;
65477;SDS011;53678;39.642;22.430;2023-12-14T09:10:05;64.82;;;35.38;;
65477;SDS011;53678;39.642;22.430;2023-12-14T09:12:32;53.47;;;33.65;;
65477;SDS011;53678;39.642;22.430;2023-12-14T09:14:59;48.10;;;28.00;;
65477;SDS011;53678;39.642;22.430;2023-12-14T09:17:27;49.40;;;27.98;;
65477;SDS011;53678;39.642;22.430;2023-12-14T09:20:02;50.28;;;27.27;;
65477;SDS011;53678;39.642;22.430;2023-12-14T09:22:30;36.47;;;23.75;;
65477;SDS011;53678;39.642;22.430;2023-12-14T09:24:56;51.45;;;27.77;;
65477;SDS011;53678;39.642;22.430;2023-12-14T09:27:22;42.65;;;26.50;;
65477;SDS011;53678;39.642;22.430;2023-12-14T09:29:49;40.80;;;27.20;;
65477;SDS011;53678;39.642;22.430;2023-12-14T09:32:14;56.70;;;28.23;;
65477;SDS011;53678;39.642;22.430;2023-12-14T09:34:42;51.25;;;26.27;;
65477;SDS011;53678;39.642;22.430;2023-12-14T09:37:08;43.97;;;26.40;;
65477;SDS011;53678;39.642;22.430;2023-12-14T09:39:34;39.35;;;26.98;;
65477;SDS011;53678;39.642;22.430;2023-12-14T09:42:02;47.75;;;27.02;;
65477;SDS011;53678;39.642;22.430;2023-12-14T09:44:32;41.20;;;24.55;;
65477;SDS011;53678;39.642;22.430;2023-12-14T09:47:01;42.40;;;23.50;;
65477;SDS011;53678;39.642;22.430;2023-12-14T09:49:30;39.83;;;23.10;;
65477;SDS011;53678;39.642;22.430;2023-12-14T09:51:56;37.22;;;22.23;;
65477;SDS011;53678;39.642;22.430;2023-12-14T09:54:22;34.85;;;21.63;;
65477;SDS011;53678;39.642;22.430;2023-12-14T09:56:49;38.83;;;20.13;;
65477;SDS011;53678;39.642;22.430;2023-12-14T09:59:16;31.75;;;18.58;;
65477;SDS011;53678;39.642;22.430;2023-12-14T10:01:43;37.83;;;18.90;;
65477;SDS011;53678;39.642;22.430;2023-12-14T10:04:10;26.88;;;16.85;;
65477;SDS011;53678;39.642;22.430;2023-12-14T10:06:38;36.88;;;20.00;;
65477;SDS011;53678;39.642;22.430;2023-12-14T10:09:05;29.58;;;18.35;;
65477;SDS011;53678;39.642;22.430;2023-12-14T10:11:37;29.20;;;17.63;;
65477;SDS011;53678;39.642;22.430;2023-12-14T10:14:17;29.85;;;15.60;;
65477;SDS011;53678;39.642;22.430;2023-12-14T10:16:45;24.45;;;14.73;;
65477;SDS011;53678;39.642;22.430;2023-12-14T10:19:12;22.65;;;13.95;;
65477;SDS011;53678;39.642;22.430;2023-12-14T10:21:37;28.25;;;16.83;;
65477;SDS011;53678;39.642;22.430;2023-12-14T10:24:03;28.17;;;18.90;;
65477;SDS011;53678;39.642;22.430;2023-12-14T10:26:31;31.13;;;19.33;;
65477;SDS011;53678;39.642;22.430;2023-12-14T10:28:57;30.90;;;19.98;;
65477;SDS011;53678;39.642;22.430;2023-12-14T10:31:24;46.92;;;25.58;;
65477;SDS011;53678;39.642;22.430;2023-12-14T10:33:53;38.58;;;22.40;;
65477;SDS011;53678;39.642;22.430;2023-12-14T10:36:19;36.10;;;22.52;;
65477;SDS011;53678;39.642;22.430;2023-12-14T10:38:48;50.90;;;28.05;;
65477;SDS011;53678;39.642;22.430;2023-12-14T10:41:17;45.70;;;28.48;;
65477;SDS011;53678;39.642;22.430;2023-12-14T10:43:44;45.45;;;29.42;;
65477;SDS011;53678;39.642;22.430;2023-12-14T10:46:13;48.33;;;29.63;;
65477;SDS011;53678;39.642;22.430;2023-12-14T10:48:40;43.35;;;28.52;;
65477;SDS011;53678;39.642;22.430;2023-12-14T10:51:11;56.33;;;34.05;;
65477;SDS011;53678;39.642;22.430;2023-12-14T10:53:37;55.47;;;32.70;;
65477;SDS011;53678;39.642;22.430;2023-12-14T10:56:05;48.63;;;28.13;;
65477;SDS011;53678;39.642;22.430;2023-12-14T11:01:13;46.88;;;28.77;;
65477;SDS011;53678;39.642;22.430;2023-12-14T11:03:44;51.80;;;29.85;;
65477;SDS011;53678;39.642;22.430;2023-12-14T11:08:58;46.72;;;30.33;;
65477;SDS011;53678;39.642;22.430;2023-12-14T11:11:29;50.70;;;29.08;;
65477;SDS011;53678;39.642;22.430;2023-12-14T11:13:56;45.40;;;29.23;;
65477;SDS011;53678;39.642;22.430;2023-12-14T11:16:22;44.70;;;26.92;;
65477;SDS011;53678;39.642;22.430;2023-12-14T11:19:23;30.80;;;20.63;;
65477;SDS011;53678;39.642;22.430;2023-12-14T11:24:20;38.45;;;24.20;;
65477;SDS011;53678;39.642;22.430;2023-12-14T11:26:50;35.92;;;22.55;;
65477;SDS011;53678;39.642;22.430;2023-12-14T11:29:17;28.95;;;17.30;;
65477;SDS011;53678;39.642;22.430;2023-12-14T11:31:45;32.17;;;17.27;;
65477;SDS011;53678;39.642;22.430;2023-12-14T11:34:16;27.63;;;14.85;;
65477;SDS011;53678;39.642;22.430;2023-12-14T11:36:42;22.63;;;13.15;;
65477;SDS011;53678;39.642;22.430;2023-12-14T11:39:11;18.73;;;11.13;;
65477;SDS011;53678;39.642;22.430;2023-12-14T11:41:36;20.95;;;9.18;;
65477;SDS011;53678;39.642;22.430;2023-12-14T11:44:04;22.42;;;9.32;;
65477;SDS011;53678;39.642;22.430;2023-12-14T11:46:30;21.88;;;9.85;;
65477;SDS011;53678;39.642;22.430;2023-12-14T11:48:59;21.05;;;9.98;;
65477;SDS011;53678;39.642;22.430;2023-12-14T11:51:29;15.27;;;8.93;;
65477;SDS011;53678;39.642;22.430;2023-12-14T11:54:00;24.58;;;9.98;;
65477;SDS011;53678;39.642;22.430;2023-12-14T11:56:26;19.48;;;9.93;;
65477;SDS011;53678;39.642;22.430;2023-12-14T11:58:55;19.40;;;8.73;;
65477;SDS011;53678;39.642;22.430;2023-12-14T12:01:21;19.00;;;9.60;;
65477;SDS011;53678;39.642;22.430;2023-12-14T12:03:50;30.13;;;13.07;;
65477;SDS011;53678;39.642;22.430;2023-12-14T12:06:34;24.63;;;11.27;;
65477;SDS011;53678;39.642;22.430;2023-12-14T12:09:00;25.85;;;13.57;;
65477;SDS011;53678;39.642;22.430;2023-12-14T12:11:25;26.75;;;13.20;;
65477;SDS011;53678;39.642;22.430;2023-12-14T12:13:55;24.70;;;12.45;;
65477;SDS011;53678;39.642;22.430;2023-12-14T12:16:22;25.42;;;13.38;;
65477;SDS011;53678;39.642;22.430;2023-12-14T12:18:48;29.27;;;13.85;;
65477;SDS011;53678;39.642;22.430;2023-12-14T12:21:16;34.97;;;16.25;;
65477;SDS011;53678;39.642;22.430;2023-12-14T12:23:41;31.70;;;18.45;;
65477;SDS011;53678;39.642;22.430;2023-12-14T12:26:14;32.77;;;19.77;;
65477;SDS011;53678;39.642;22.430;2023-12-14T12:28:40;36.97;;;19.85;;
65477;SDS011;53678;39.642;22.430;2023-12-14T12:31:06;34.40;;;20.27;;
65477;SDS011;53678;39.642;22.430;2023-12-14T12:33:32;39.20;;;21.40;;
65477;SDS011;53678;39.642;22.430;2023-12-14T12:36:03;43.45;;;22.73;;
65477;SDS011;53678;39.642;22.430;2023-12-14T12:38:29;37.67;;;23.55;;
65477;SDS011;53678;39.642;22.430;2023-12-14T12:40:54;46.80;;;25.33;;
65477;SDS011;53678;39.642;22.430;2023-12-14T12:43:21;41.08;;;24.88;;
65477;SDS011;53678;39.642;22.430;2023-12-14T12:45:46;40.40;;;25.75;;
65477;SDS011;53678;39.642;22.430;2023-12-14T12:48:12;49.17;;;26.10;;
65477;SDS011;53678;39.642;22.430;2023-12-14T12:50:38;46.47;;;26.15;;
65477;SDS011;53678;39.642;22.430;2023-12-14T12:53:04;41.30;;;25.88;;
65477;SDS011;53678;39.642;22.430;2023-12-14T12:55:31;45.38;;;30.17;;
65477;SDS011;53678;39.642;22.430;2023-12-14T12:57:57;60.95;;;30.95;;
65477;SDS011;53678;39.642;22.430;2023-12-14T13:00:30;45.80;;;28.45;;
65477;SDS011;53678;39.642;22.430;2023-12-14T13:02:55;46.88;;;27.20;;
65477;SDS011;53678;39.642;22.430;2023-12-14T13:05:23;42.03;;;24.75;;
65477;SDS011;53678;39.642;22.430;2023-12-14T13:07:50;38.60;;;22.65;;
65477;SDS011;53678;39.642;22.430;2023-12-14T13:10:17;40.33;;;21.45;;
65477;SDS011;53678;39.642;22.430;2023-12-14T13:12:47;32.20;;;22.02;;
65477;SDS011;53678;39.642;22.430;2023-12-14T13:15:13;38.70;;;24.30;;
65477;SDS011;53678;39.642;22.430;2023-12-14T13:17:39;40.05;;;24.67;;
65477;SDS011;53678;39.642;22.430;2023-12-14T13:20:05;41.90;;;26.58;;
65477;SDS011;53678;39.642;22.430;2023-12-14T13:22:32;32.35;;;20.60;;
65477;SDS011;53678;39.642;22.430;2023-12-14T13:24:58;32.70;;;20.83;;
65477;SDS011;53678;39.642;22.430;2023-12-14T13:27:24;40.08;;;22.98;;
65477;SDS011;53678;39.642;22.430;2023-12-14T13:29:51;35.70;;;22.10;;
65477;SDS011;53678;39.642;22.430;2023-12-14T13:32:17;34.38;;;21.30;;
65477;SDS011;53678;39.642;22.430;2023-12-14T13:34:43;49.42;;;22.38;;
65477;SDS011;53678;39.642;22.430;2023-12-14T13:37:08;45.88;;;21.98;;
65477;SDS011;53678;39.642;22.430;2023-12-14T13:39:36;45.20;;;24.08;;
65477;SDS011;53678;39.642;22.430;2023-12-14T13:42:04;37.55;;;19.83;;
65477;SDS011;53678;39.642;22.430;2023-12-14T13:44:31;36.25;;;19.63;;
65477;SDS011;53678;39.642;22.430;2023-12-14T13:47:01;36.53;;;19.48;;
65477;SDS011;53678;39.642;22.430;2023-12-14T13:49:27;36.13;;;22.35;;
65477;SDS011;53678;39.642;22.430;2023-12-14T13:51:52;39.95;;;23.27;;
65477;SDS011;53678;39.642;22.430;2023-12-14T13:54:18;36.88;;;22.30;;
65477;SDS011;53678;39.642;22.430;2023-12-14T13:56:44;52.58;;;25.23;;
65477;SDS011;53678;39.642;22.430;2023-12-14T13:59:09;47.63;;;24.48;;
65477;SDS011;53678;39.642;22.430;2023-12-14T14:01:35;45.78;;;22.92;;
65477;SDS011;53678;39.642;22.430;2023-12-14T14:04:01;43.30;;;22.85;;
65477;SDS011;53678;39.642;22.430;2023-12-14T14:06:29;47.58;;;24.48;;
65477;SDS011;53678;39.642;22.430;2023-12-14T14:08:55;43.42;;;23.90;;
65477;SDS011;53678;39.642;22.430;2023-12-14T14:11:22;40.67;;;23.38;;
65477;SDS011;53678;39.642;22.430;2023-12-14T14:13:48;48.50;;;24.48;;